createdAt,value
2022-07-26T00:01:31.712Z,82.50
2022-07-26T00:04:20.362Z,85.58
2022-07-26T00:07:08.506Z,86.85
2022-07-26T00:09:56.730Z,86.90
2022-07-26T00:12:44.763Z,89.56
2022-07-26T00:15:34.634Z,89.60
2022-07-26T00:18:22.943Z,90.66
2022-07-26T00:21:11.650Z,92.22
2022-07-26T00:23:59.946Z,94.30
2022-07-26T00:26:48.039Z,96.06
2022-07-26T00:29:36.502Z,98.63
2022-07-26T00:32:26.097Z,99.68
2022-07-26T00:35:14.343Z,100.00
2022-07-26T00:38:02.377Z,100.00
2022-07-26T00:40:50.397Z,100.00
2022-07-26T00:43:38.490Z,100.00
2022-07-26T00:46:26.619Z,100.00
2022-07-26T00:49:16.175Z,100.00
2022-07-26T00:52:06.690Z,100.00
2022-07-26T00:54:56.139Z,100.00
2022-07-26T00:57:44.701Z,100.00
2022-07-26T01:00:33.023Z,100.00
2022-07-26T01:03:21.063Z,100.00
2022-07-26T01:06:10.809Z,100.00
2022-07-26T01:08:59.156Z,100.00
2022-07-26T01:11:47.422Z,100.00
2022-07-26T01:14:35.464Z,100.00
2022-07-26T01:17:23.736Z,100.00
2022-07-26T01:20:14.024Z,100.00
2022-07-26T01:23:03.471Z,100.00
2022-07-26T01:25:51.457Z,100.00
2022-07-26T01:28:41.372Z,100.00
2022-07-26T01:31:29.411Z,100.00
2022-07-26T01:34:18.104Z,100.00
2022-07-26T01:37:07.830Z,100.00
2022-07-26T01:39:57.167Z,100.00
2022-07-26T01:42:45.179Z,100.00
2022-07-26T01:45:34.961Z,100.00
2022-07-26T01:48:23.097Z,100.00
2022-07-26T01:51:11.108Z,100.00
2022-07-26T01:53:59.275Z,100.00
2022-07-26T01:56:48.623Z,100.00
2022-07-26T01:59:36.694Z,100.00
2022-07-26T02:02:25.079Z,100.00
2022-07-26T02:05:13.179Z,100.00
2022-07-26T02:08:01.260Z,100.00
2022-07-26T02:11:03.362Z,100.00
2022-07-26T02:13:53.477Z,100.00
2022-07-26T02:16:41.521Z,100.00
2022-07-26T02:19:30.184Z,100.00
2022-07-26T02:22:18.936Z,100.00
2022-07-26T02:25:07.762Z,100.00
2022-07-26T02:27:56.049Z,100.00
2022-07-26T02:30:46.427Z,100.00
2022-07-26T02:33:35.020Z,100.00
2022-07-26T02:36:23.023Z,100.00
2022-07-26T02:39:11.246Z,100.00
2022-07-26T02:42:01.876Z,100.00
2022-07-26T02:44:49.909Z,100.00
2022-07-26T02:47:47.628Z,100.00
2022-07-26T02:50:36.176Z,100.00
2022-07-26T02:53:24.255Z,100.00
2022-07-26T02:56:12.407Z,100.00
2022-07-26T02:59:00.440Z,100.00
2022-07-26T03:01:48.473Z,100.00
2022-07-26T03:04:37.844Z,100.00
2022-07-26T03:07:27.000Z,100.00
2022-07-26T03:10:15.428Z,100.00
2022-07-26T03:13:03.616Z,100.00
2022-07-26T03:15:51.703Z,100.00
2022-07-26T03:18:39.911Z,100.00
2022-07-26T03:21:29.718Z,100.00
2022-07-26T03:24:17.716Z,100.00
2022-07-26T03:27:05.756Z,100.00
2022-07-26T03:29:53.795Z,100.00
2022-07-26T03:32:41.833Z,100.00
2022-07-26T03:35:29.841Z,100.00
2022-07-26T03:38:25.986Z,100.00
2022-07-26T03:41:14.047Z,100.00
2022-07-26T03:44:02.120Z,100.00
2022-07-26T03:46:50.123Z,100.00
2022-07-26T03:49:38.238Z,100.00
2022-07-26T03:52:26.257Z,100.00
2022-07-26T03:55:33.027Z,100.00
2022-07-26T03:58:21.095Z,100.00
2022-07-26T04:01:09.090Z,100.00
2022-07-26T04:03:57.395Z,100.00
2022-07-26T04:06:46.393Z,100.00
2022-07-26T04:09:34.397Z,100.00
2022-07-26T04:12:23.783Z,100.00
2022-07-26T04:15:12.188Z,100.00
2022-07-26T04:18:00.162Z,100.00
2022-07-26T04:20:48.189Z,100.00
2022-07-26T04:23:36.316Z,100.00
2022-07-26T04:26:24.611Z,100.00
2022-07-26T04:29:15.190Z,100.00
2022-07-26T04:32:03.170Z,100.00
2022-07-26T04:34:51.283Z,100.00
2022-07-26T04:37:40.637Z,100.00
2022-07-26T04:40:33.275Z,100.00
2022-07-26T04:43:21.266Z,100.00
2022-07-26T04:46:10.659Z,100.00
2022-07-26T04:48:58.783Z,100.00
2022-07-26T04:51:46.856Z,100.00
2022-07-26T04:54:34.869Z,100.00
2022-07-26T04:57:23.523Z,100.00
2022-07-26T05:00:21.920Z,100.00
2022-07-26T05:03:11.859Z,100.00
2022-07-26T05:05:59.897Z,100.00
2022-07-26T05:08:47.880Z,100.00
2022-07-26T05:11:35.832Z,100.00
2022-07-26T05:14:23.856Z,100.00
2022-07-26T05:17:12.101Z,100.00
2022-07-26T05:20:03.401Z,100.00
2022-07-26T05:22:51.698Z,100.00
2022-07-26T05:25:39.707Z,100.00
2022-07-26T05:28:27.760Z,100.00
2022-07-26T05:31:15.906Z,100.00
2022-07-26T05:34:04.249Z,94.72
2022-07-26T05:36:53.785Z,88.34
2022-07-26T05:39:41.894Z,83.07
2022-07-26T05:42:29.903Z,85.12
2022-07-26T05:45:18.165Z,82.48
2022-07-26T05:48:06.557Z,84.69
2022-07-26T05:50:54.731Z,84.73
2022-07-26T05:53:44.124Z,86.15
2022-07-26T05:56:32.444Z,85.75
2022-07-26T05:59:20.473Z,87.87
2022-07-26T06:02:08.926Z,87.78
2022-07-26T06:04:57.000Z,84.80
2022-07-26T06:07:45.061Z,83.77
2022-07-26T06:10:34.441Z,82.82
2022-07-26T06:13:22.770Z,82.86
2022-07-26T06:16:10.901Z,84.82
2022-07-26T06:18:58.979Z,86.22
2022-07-26T06:21:47.034Z,85.91
2022-07-26T06:24:35.064Z,87.48
2022-07-26T06:27:24.413Z,89.54
2022-07-26T06:30:13.575Z,87.95
2022-07-26T06:33:02.105Z,88.96
2022-07-26T06:35:50.149Z,85.13
2022-07-26T06:38:38.160Z,83.97
2022-07-26T06:41:26.917Z,81.83
2022-07-26T06:44:16.383Z,81.42
2022-07-26T06:47:04.494Z,79.67
2022-07-26T06:49:52.553Z,76.44
2022-07-26T06:52:40.687Z,75.67
2022-07-26T06:55:28.739Z,76.58
2022-07-26T06:58:16.780Z,76.13
2022-07-26T07:01:06.385Z,73.21
2022-07-26T07:03:54.501Z,70.10
2022-07-26T07:09:30.684Z,67.58
2022-07-26T07:12:18.801Z,63.96
2022-07-26T07:15:07.902Z,62.89
2022-07-26T07:17:57.273Z,64.59
2022-07-26T07:20:45.297Z,62.91
2022-07-26T07:23:33.579Z,54.75
2022-07-26T07:26:21.581Z,53.17
2022-07-26T07:29:11.901Z,51.58
2022-07-26T07:32:00.007Z,47.73
2022-07-26T07:34:52.933Z,45.33
2022-07-26T07:37:52.823Z,45.13
2022-07-26T07:40:42.185Z,44.92
2022-07-26T07:43:30.266Z,43.42
2022-07-26T07:46:18.436Z,43.01
2022-07-26T07:49:07.044Z,42.11
2022-07-26T07:51:56.698Z,41.97
2022-07-26T07:54:44.710Z,42.00
2022-07-26T07:57:32.830Z,42.65
2022-07-26T08:00:27.172Z,44.28
2022-07-26T08:03:17.928Z,45.36
2022-07-26T08:06:09.357Z,44.29
2022-07-26T08:08:58.810Z,45.60
2022-07-26T08:11:50.684Z,44.91
2022-07-26T08:14:39.564Z,45.31
2022-07-26T08:17:29.580Z,46.93
2022-07-26T08:20:19.693Z,48.44
2022-07-26T08:23:11.632Z,48.74
2022-07-26T08:26:06.274Z,49.05
2022-07-26T08:28:58.556Z,49.52
2022-07-26T08:31:50.414Z,48.59
2022-07-26T08:34:38.650Z,48.27
2022-07-26T08:37:26.663Z,47.75
2022-07-26T08:40:15.097Z,47.76
2022-07-26T08:43:05.100Z,47.66
2022-07-26T08:45:55.717Z,46.65
2022-07-26T08:48:43.821Z,45.28
2022-07-26T08:51:33.487Z,45.95
2022-07-26T08:54:21.797Z,46.43
2022-07-26T08:57:09.834Z,43.79
2022-07-26T09:00:19.870Z,42.89
2022-07-26T09:03:07.992Z,43.43
2022-07-26T09:05:56.270Z,45.31
2022-07-26T09:08:46.009Z,46.58
2022-07-26T09:11:34.281Z,47.68
2022-07-26T09:14:22.596Z,48.73
2022-07-26T09:17:12.124Z,48.57
2022-07-26T09:20:10.015Z,49.08
2022-07-26T09:23:03.502Z,48.27
2022-07-26T09:25:51.568Z,48.10
2022-07-26T09:28:45.071Z,48.42
2022-07-26T09:31:33.627Z,48.49
2022-07-26T09:34:26.590Z,48.63
2022-07-26T09:37:14.683Z,47.90
2022-07-26T09:40:05.038Z,47.37
2022-07-26T09:42:58.037Z,46.13
2022-07-26T09:45:46.175Z,45.89
2022-07-26T09:49:07.769Z,46.05
2022-07-26T09:51:48.352Z,45.57
2022-07-26T09:54:36.881Z,46.59
2022-07-26T09:57:25.267Z,46.78
2022-07-26T10:00:14.367Z,46.81
2022-07-26T10:03:02.825Z,45.04
2022-07-26T10:05:50.851Z,44.69
2022-07-26T10:08:40.490Z,44.29
2022-07-26T10:11:33.018Z,43.65
2022-07-26T10:14:45.688Z,43.90
2022-07-26T10:17:42.593Z,43.54
2022-07-26T10:20:51.355Z,44.53
2022-07-26T10:23:43.596Z,44.64
2022-07-26T10:26:40.509Z,44.80
2022-07-26T10:29:31.105Z,45.15
2022-07-26T10:32:21.117Z,45.41
2022-07-26T10:35:33.588Z,44.82
2022-07-26T10:38:26.300Z,45.16
2022-07-26T10:41:31.334Z,45.83
2022-07-26T10:44:22.869Z,43.29
2022-07-26T10:47:15.632Z,45.33
2022-07-26T10:50:05.636Z,45.86
2022-07-26T10:52:59.804Z,45.18
2022-07-26T10:55:53.105Z,42.31
2022-07-26T10:58:44.346Z,41.82
2022-07-26T11:01:36.390Z,40.61
2022-07-26T11:04:25.869Z,37.88
2022-07-26T11:07:14.051Z,38.50
2022-07-26T11:10:03.535Z,38.92
2022-07-26T11:13:03.029Z,38.38
2022-07-26T11:16:00.484Z,36.77
2022-07-26T11:18:48.701Z,37.11
2022-07-26T11:21:36.703Z,36.83
2022-07-26T11:24:26.276Z,38.24
2022-07-26T11:27:14.783Z,38.30
2022-07-26T11:30:05.122Z,38.82
2022-07-26T11:32:55.833Z,37.43
2022-07-26T11:35:51.741Z,37.33
2022-07-26T11:38:48.065Z,36.64
2022-07-26T11:41:37.005Z,36.65
2022-07-26T11:44:25.466Z,34.89
2022-07-26T11:47:14.946Z,34.46
2022-07-26T11:50:22.294Z,35.18
2022-07-26T11:53:22.273Z,35.71
2022-07-26T11:56:12.591Z,36.23
2022-07-26T11:59:01.170Z,37.45
2022-07-26T12:01:49.977Z,37.26
2022-07-26T12:04:39.824Z,37.76
2022-07-26T12:07:29.322Z,37.62
2022-07-26T12:10:17.744Z,38.10
2022-07-26T12:13:10.944Z,37.65
2022-07-26T12:15:59.090Z,38.00
2022-07-26T12:18:52.709Z,36.71
2022-07-26T12:21:42.822Z,36.25
2022-07-26T12:24:44.698Z,36.51
2022-07-26T12:27:33.996Z,36.14
2022-07-26T12:30:22.450Z,37.11
2022-07-26T12:33:10.509Z,37.32
2022-07-26T12:36:01.589Z,36.94
2022-07-26T12:38:52.270Z,37.88
2022-07-26T12:41:42.050Z,37.70
2022-07-26T12:44:30.166Z,37.60
2022-07-26T12:47:18.181Z,38.00
2022-07-26T12:50:08.432Z,38.07
2022-07-26T12:53:01.846Z,39.23
2022-07-26T12:55:49.963Z,39.11
2022-07-26T12:58:39.307Z,37.16
2022-07-26T13:01:27.521Z,36.31
2022-07-26T13:04:16.217Z,34.66
2022-07-26T13:07:05.407Z,34.63
2022-07-26T13:10:14.277Z,34.77
2022-07-26T13:13:01.493Z,35.34
2022-07-26T13:15:51.273Z,35.30
2022-07-26T13:18:39.341Z,35.29
2022-07-26T13:21:33.476Z,35.80
2022-07-26T13:24:21.859Z,35.85
2022-07-26T13:27:10.802Z,36.30
2022-07-26T13:29:58.970Z,36.56
2022-07-26T13:32:48.788Z,36.31
2022-07-26T13:35:38.797Z,36.59
2022-07-26T13:38:28.301Z,35.63
2022-07-26T13:41:16.335Z,36.71
2022-07-26T13:44:05.040Z,35.92
2022-07-26T13:46:53.275Z,35.35
2022-07-26T13:49:42.796Z,35.13
2022-07-26T13:52:30.845Z,35.84
2022-07-26T13:55:19.233Z,36.83
2022-07-26T13:58:10.082Z,36.83
2022-07-26T14:00:58.546Z,35.85
2022-07-26T14:03:46.639Z,35.44
2022-07-26T14:06:36.690Z,36.43
2022-07-26T14:09:24.867Z,37.24
2022-07-26T14:12:14.315Z,36.27
2022-07-26T14:15:02.318Z,37.66
2022-07-26T14:17:50.451Z,37.51
2022-07-26T14:20:38.602Z,37.44
2022-07-26T14:23:27.959Z,36.85
2022-07-26T14:26:16.012Z,37.57
2022-07-26T14:29:04.090Z,36.83
2022-07-26T14:31:52.190Z,37.44
2022-07-26T14:34:40.590Z,37.28
2022-07-26T14:37:44.842Z,37.08
2022-07-26T14:40:34.956Z,36.93
2022-07-26T14:43:23.065Z,36.60
2022-07-26T14:46:11.121Z,36.72
2022-07-26T14:48:59.256Z,36.00
2022-07-26T14:51:47.971Z,35.84
2022-07-26T14:54:36.865Z,34.77
2022-07-26T14:57:26.738Z,34.17
2022-07-26T15:00:17.137Z,33.96
2022-07-26T15:03:05.302Z,33.38
2022-07-26T15:05:53.442Z,32.51
2022-07-26T15:08:41.436Z,32.27
2022-07-26T15:11:29.546Z,31.83
2022-07-26T15:14:18.990Z,31.69
2022-07-26T15:17:07.009Z,31.67
2022-07-26T15:19:55.178Z,32.68
2022-07-26T15:22:43.260Z,33.44
2022-07-26T15:25:31.313Z,33.39
2022-07-26T15:28:19.431Z,32.77
2022-07-26T15:31:11.085Z,32.93
2022-07-26T15:33:59.107Z,32.88
2022-07-26T15:36:47.417Z,33.22
2022-07-26T15:39:35.436Z,33.91
2022-07-26T15:42:23.535Z,34.53
2022-07-26T15:45:13.822Z,34.33
2022-07-26T15:48:14.963Z,35.62
2022-07-26T15:51:05.423Z,34.91
2022-07-26T15:53:53.483Z,34.96
2022-07-26T15:56:41.865Z,36.01
2022-07-26T15:59:30.015Z,34.20
2022-07-26T16:02:18.173Z,33.50
2022-07-26T16:05:09.107Z,32.91
2022-07-26T16:07:57.158Z,33.00
2022-07-26T16:10:45.226Z,33.05
2022-07-26T16:13:33.272Z,34.00
2022-07-26T16:16:21.439Z,34.65
2022-07-26T16:19:09.936Z,34.66
2022-07-26T16:21:59.602Z,35.22
2022-07-26T16:24:47.667Z,35.53
2022-07-26T16:27:35.692Z,34.55
2022-07-26T16:30:24.798Z,34.88
2022-07-26T16:33:12.842Z,35.42
2022-07-26T16:36:06.000Z,33.88
2022-07-26T16:38:55.789Z,34.16
2022-07-26T16:41:43.891Z,34.27
2022-07-26T16:44:31.937Z,33.66
2022-07-26T16:47:20.035Z,32.80
2022-07-26T16:50:08.803Z,30.24
2022-07-26T16:52:56.850Z,29.81
2022-07-26T16:55:49.392Z,31.30
2022-07-26T16:58:37.461Z,31.83
2022-07-26T17:01:25.609Z,31.11
2022-07-26T17:04:13.718Z,30.18
2022-07-26T17:07:23.802Z,29.62
2022-07-26T17:10:11.375Z,31.13
2022-07-26T17:13:00.727Z,33.83
2022-07-26T17:15:49.029Z,35.59
2022-07-26T17:18:37.131Z,36.55
2022-07-26T17:21:25.259Z,37.33
2022-07-26T17:24:13.319Z,38.08
2022-07-26T17:27:01.875Z,38.21
2022-07-26T17:29:51.897Z,39.90
2022-07-26T17:32:40.133Z,39.96
2022-07-26T17:35:28.297Z,40.47
2022-07-26T17:38:16.363Z,41.88
2022-07-26T17:41:05.035Z,42.78
2022-07-26T17:43:53.972Z,43.55
2022-07-26T17:46:43.748Z,45.75
2022-07-26T17:49:32.013Z,46.63
2022-07-26T17:52:20.472Z,47.04
2022-07-26T17:55:09.146Z,48.36
2022-07-26T17:57:57.214Z,47.90
2022-07-26T18:00:45.263Z,48.10
2022-07-26T18:03:35.016Z,48.63
2022-07-26T18:06:23.115Z,48.95
2022-07-26T18:09:11.916Z,49.25
2022-07-26T18:12:00.636Z,50.08
2022-07-26T18:14:48.748Z,50.93
2022-07-26T18:17:37.409Z,51.03
2022-07-26T18:20:26.908Z,50.54
2022-07-26T18:23:15.004Z,51.28
2022-07-26T18:26:03.009Z,51.82
2022-07-26T18:28:53.229Z,52.81
2022-07-26T18:31:41.420Z,53.68
2022-07-26T18:34:29.797Z,54.08
2022-07-26T18:37:19.166Z,53.41
2022-07-26T18:40:08.721Z,53.71
2022-07-26T18:42:56.895Z,53.81
2022-07-26T18:45:44.933Z,54.30
2022-07-26T18:48:33.066Z,55.57
2022-07-26T18:51:22.046Z,55.53
2022-07-26T18:54:16.123Z,56.18
2022-07-26T18:57:04.338Z,56.98
2022-07-26T18:59:52.358Z,56.98
2022-07-26T19:02:40.380Z,58.87
2022-07-26T19:05:34.370Z,58.70
2022-07-26T19:08:23.480Z,59.14
2022-07-26T19:11:13.138Z,58.38
2022-07-26T19:14:01.395Z,56.54
2022-07-26T19:16:50.184Z,58.00
2022-07-26T19:19:38.378Z,56.26
2022-07-26T19:22:27.050Z,58.04
2022-07-26T19:25:16.139Z,58.19
2022-07-26T19:28:06.974Z,59.09
2022-07-26T19:30:57.369Z,56.78
2022-07-26T19:33:45.419Z,56.03
2022-07-26T19:36:33.458Z,56.71
2022-07-26T19:39:21.855Z,56.04
2022-07-26T19:42:09.848Z,57.10
2022-07-26T19:45:00.423Z,57.04
2022-07-26T19:47:48.472Z,55.76
2022-07-26T19:50:36.496Z,55.12
2022-07-26T19:53:24.547Z,56.41
2022-07-26T19:56:12.647Z,55.62
2022-07-26T19:59:01.348Z,55.83
2022-07-26T20:01:52.791Z,57.43
2022-07-26T20:04:45.677Z,55.19
2022-07-26T20:07:34.159Z,57.58
2022-07-26T20:10:22.188Z,56.30
2022-07-26T20:13:10.345Z,56.88
2022-07-26T20:15:58.418Z,59.02
2022-07-26T20:18:48.209Z,59.02
2022-07-26T20:21:36.373Z,58.58
2022-07-26T20:24:24.506Z,60.28
2022-07-26T20:27:12.601Z,60.94
2022-07-26T20:30:01.240Z,60.68
2022-07-26T20:32:49.524Z,60.18
2022-07-26T20:35:38.924Z,61.67
2022-07-26T20:38:26.970Z,60.18
2022-07-26T20:41:15.057Z,62.65
2022-07-26T20:44:03.122Z,64.51
2022-07-26T20:46:52.449Z,63.34
2022-07-26T20:49:40.438Z,64.18
2022-07-26T20:52:31.181Z,64.83
2022-07-26T20:55:19.224Z,65.33
2022-07-26T20:58:07.429Z,64.69
2022-07-26T21:00:55.784Z,64.58
2022-07-26T21:03:44.009Z,65.93
2022-07-26T21:06:33.817Z,65.33
2022-07-26T21:09:26.981Z,62.26
2022-07-26T21:12:15.014Z,67.28
2022-07-26T21:15:03.211Z,63.44
2022-07-26T21:17:52.369Z,65.61
2022-07-26T21:20:40.406Z,67.18
2022-07-26T21:23:28.549Z,67.42
2022-07-26T21:29:06.111Z,66.69
2022-07-26T21:31:54.430Z,67.00
2022-07-26T21:37:30.581Z,63.15
2022-07-26T21:40:18.978Z,64.82
2022-07-26T21:43:08.394Z,65.41
2022-07-26T21:45:56.469Z,66.66
2022-07-26T21:48:44.883Z,65.09
2022-07-26T21:51:33.039Z,64.03
2022-07-26T21:54:21.074Z,67.76
2022-07-26T21:57:09.122Z,65.51
2022-07-26T21:59:58.499Z,65.58
2022-07-26T22:02:46.771Z,66.04
2022-07-26T22:05:42.450Z,65.71
2022-07-26T22:08:31.681Z,68.13
2022-07-26T22:11:19.731Z,71.05
2022-07-26T22:14:08.403Z,71.61
2022-07-26T22:16:57.906Z,70.26
2022-07-26T22:19:45.929Z,70.85
2022-07-26T22:22:34.067Z,70.82
2022-07-26T22:25:22.083Z,73.78
2022-07-26T22:28:11.509Z,75.51
2022-07-26T22:30:59.678Z,74.64
2022-07-26T22:33:49.345Z,78.00
2022-07-26T22:36:39.965Z,78.38
2022-07-26T22:39:33.129Z,79.25
2022-07-26T22:42:21.202Z,81.72
2022-07-26T22:45:10.211Z,84.16
2022-07-26T22:47:59.100Z,83.92
2022-07-26T22:50:48.554Z,83.58
2022-07-26T22:53:36.577Z,85.87
2022-07-26T22:56:24.651Z,87.30
2022-07-26T22:59:12.973Z,87.64
2022-07-26T23:02:01.389Z,91.23
2022-07-26T23:04:49.640Z,92.90
2022-07-26T23:07:40.067Z,94.30
2022-07-26T23:10:28.809Z,93.90
2022-07-26T23:13:17.560Z,95.35
2022-07-26T23:16:06.307Z,93.94
2022-07-26T23:18:54.447Z,95.72
2022-07-26T23:21:42.495Z,98.40
2022-07-26T23:24:31.896Z,98.28
2022-07-26T23:27:20.414Z,100.00
2022-07-26T23:30:09.582Z,100.00
2022-07-26T23:32:57.647Z,100.00
2022-07-26T23:35:45.683Z,100.00
2022-07-26T23:38:33.891Z,100.00
2022-07-26T23:41:23.692Z,100.00
2022-07-26T23:44:11.830Z,100.00
2022-07-26T23:47:00.660Z,100.00
2022-07-26T23:49:48.840Z,100.00
2022-07-26T23:52:37.909Z,100.00
2022-07-26T23:55:25.929Z,100.00
2022-07-26T23:58:15.299Z,100.00
